createdAt,value
2019-06-27T00:01:08.498Z,40.06
2019-06-27T00:03:36.874Z,39.24
2019-06-27T00:06:05.397Z,39.27
2019-06-27T00:08:33.785Z,39.37
2019-06-27T00:11:02.468Z,39.18
2019-06-27T00:13:30.848Z,39.54
2019-06-27T00:15:59.261Z,40.09
2019-06-27T00:18:27.638Z,40.15
2019-06-27T00:20:57.601Z,39.86
2019-06-27T00:23:25.919Z,40.91
2019-06-27T00:25:54.213Z,39.58
2019-06-27T00:28:22.725Z,39.49
2019-06-27T00:30:51.047Z,39.17
2019-06-27T00:33:19.375Z,39.55
2019-06-27T00:35:48.079Z,39.15
2019-06-27T00:38:16.403Z,39.78
2019-06-27T00:40:45.034Z,39.40
2019-06-27T00:43:13.732Z,39.33
2019-06-27T00:45:42.297Z,38.70
2019-06-27T00:48:10.992Z,39.42
2019-06-27T00:50:39.684Z,38.74
2019-06-27T00:53:08.062Z,38.48
2019-06-27T00:55:36.389Z,37.82
2019-06-27T00:58:05.119Z,38.07
2019-06-27T01:00:33.449Z,38.16
2019-06-27T01:03:02.106Z,39.03
2019-06-27T01:05:30.798Z,37.44
2019-06-27T01:07:59.170Z,37.24
2019-06-27T01:10:27.638Z,37.42
2019-06-27T01:12:55.945Z,37.87
2019-06-27T01:15:24.344Z,38.06
2019-06-27T01:17:52.629Z,38.29
2019-06-27T01:20:21.033Z,38.32
2019-06-27T01:22:49.429Z,38.91
2019-06-27T01:25:17.832Z,38.73
2019-06-27T01:27:46.216Z,38.81
2019-06-27T01:30:15.853Z,38.85
2019-06-27T01:32:44.643Z,39.79
2019-06-27T01:35:13.210Z,39.84
2019-06-27T01:37:41.543Z,39.01
2019-06-27T01:40:11.789Z,38.14
2019-06-27T01:42:40.129Z,38.61
2019-06-27T01:45:10.723Z,38.84
2019-06-27T01:47:39.124Z,38.57
2019-06-27T01:50:07.508Z,38.36
2019-06-27T01:52:35.852Z,38.43
2019-06-27T01:55:06.422Z,38.10
2019-06-27T01:57:45.987Z,38.23
2019-06-27T02:00:09.226Z,37.53
2019-06-27T02:02:37.655Z,37.63
2019-06-27T02:05:07.795Z,37.66
2019-06-27T02:07:36.348Z,36.59
2019-06-27T02:10:09.203Z,37.43
2019-06-27T02:12:37.782Z,37.46
2019-06-27T02:15:07.845Z,37.64
2019-06-27T02:17:36.202Z,36.88
2019-06-27T02:20:07.233Z,36.06
2019-06-27T02:22:35.539Z,36.78
2019-06-27T02:25:05.706Z,37.70
2019-06-27T02:27:34.007Z,38.25
2019-06-27T02:30:02.416Z,38.09
2019-06-27T02:32:31.102Z,38.03
2019-06-27T02:34:59.776Z,38.21
2019-06-27T02:37:28.561Z,38.14
2019-06-27T02:39:57.017Z,38.41
2019-06-27T02:42:25.345Z,37.95
2019-06-27T02:44:54.030Z,38.11
2019-06-27T02:47:23.530Z,38.18
2019-06-27T02:49:51.908Z,37.73
2019-06-27T02:52:20.232Z,37.33
2019-06-27T02:54:48.568Z,37.46
2019-06-27T02:57:16.866Z,37.27
2019-06-27T02:59:45.193Z,37.53
2019-06-27T03:02:13.569Z,37.43
2019-06-27T03:04:42.001Z,37.22
2019-06-27T03:07:10.385Z,37.02
2019-06-27T03:09:38.777Z,37.50
2019-06-27T03:12:07.093Z,38.55
2019-06-27T03:14:35.497Z,37.45
2019-06-27T03:17:04.107Z,37.30
2019-06-27T03:19:32.470Z,37.49
2019-06-27T03:22:05.346Z,37.88
2019-06-27T03:24:30.874Z,37.57
2019-06-27T03:26:59.202Z,37.97
2019-06-27T03:29:27.878Z,37.77
2019-06-27T03:31:56.227Z,37.47
2019-06-27T03:34:24.861Z,37.24
2019-06-27T03:36:53.513Z,37.54
2019-06-27T03:39:21.902Z,37.45
2019-06-27T03:41:50.586Z,38.06
2019-06-27T03:44:18.905Z,38.39
2019-06-27T03:46:47.556Z,37.91
2019-06-27T03:49:16.256Z,38.09
2019-06-27T03:51:44.933Z,38.14
2019-06-27T03:54:13.273Z,38.02
2019-06-27T03:56:41.658Z,37.83
2019-06-27T03:59:12.791Z,38.37
2019-06-27T04:01:40.021Z,38.07
2019-06-27T04:04:08.341Z,37.97
2019-06-27T04:06:36.964Z,38.30
2019-06-27T04:09:05.934Z,38.22
2019-06-27T04:11:34.325Z,38.32
2019-06-27T04:14:02.656Z,38.50
2019-06-27T04:16:31.029Z,37.87
2019-06-27T04:18:59.600Z,37.33
2019-06-27T04:21:27.934Z,38.41
2019-06-27T04:23:56.235Z,38.91
2019-06-27T04:26:24.537Z,38.48
2019-06-27T04:28:52.833Z,37.93
2019-06-27T04:31:21.604Z,37.80
2019-06-27T04:33:49.979Z,38.43
2019-06-27T04:36:18.384Z,38.35
2019-06-27T04:38:46.685Z,37.38
2019-06-27T04:41:15.022Z,37.33
2019-06-27T04:43:43.395Z,37.82
2019-06-27T04:46:12.102Z,37.80
2019-06-27T04:48:40.407Z,37.69
2019-06-27T04:51:08.705Z,37.52
2019-06-27T04:53:37.200Z,37.28
2019-06-27T04:56:05.514Z,37.25
2019-06-27T04:58:33.830Z,36.98
2019-06-27T05:01:02.139Z,37.71
2019-06-27T05:03:30.471Z,37.33
2019-06-27T05:05:58.846Z,36.16
2019-06-27T05:08:27.253Z,35.85
2019-06-27T05:10:55.595Z,35.87
2019-06-27T05:13:23.982Z,36.74
2019-06-27T05:15:52.300Z,37.17
2019-06-27T05:18:20.596Z,37.78
2019-06-27T05:20:48.906Z,39.35
2019-06-27T05:23:17.265Z,37.97
2019-06-27T05:25:45.577Z,39.97
2019-06-27T05:28:13.884Z,39.33
2019-06-27T05:30:42.205Z,40.17
2019-06-27T05:33:10.630Z,38.79
2019-06-27T05:35:38.963Z,38.17
2019-06-27T05:38:07.266Z,37.75
2019-06-27T05:40:35.782Z,38.83
2019-06-27T05:43:04.465Z,37.47
2019-06-27T05:45:32.861Z,39.78
2019-06-27T05:48:01.199Z,39.04
2019-06-27T05:50:29.494Z,39.22
2019-06-27T05:52:57.801Z,39.74
2019-06-27T05:55:26.093Z,38.92
2019-06-27T05:57:54.590Z,40.09
2019-06-27T06:00:28.977Z,40.48
2019-06-27T06:02:53.488Z,41.06
2019-06-27T06:05:21.810Z,40.96
2019-06-27T06:07:50.129Z,40.31
2019-06-27T06:10:18.812Z,40.54
2019-06-27T06:12:47.203Z,41.18
2019-06-27T06:15:15.581Z,41.23
2019-06-27T06:17:43.897Z,39.95
2019-06-27T06:20:13.657Z,40.35
2019-06-27T06:22:41.930Z,41.24
2019-06-27T06:25:10.751Z,41.36
2019-06-27T06:27:39.053Z,39.21
2019-06-27T06:30:09.042Z,41.44
2019-06-27T06:32:37.385Z,41.67
2019-06-27T06:35:07.258Z,40.98
2019-06-27T06:37:35.633Z,39.37
2019-06-27T06:40:05.395Z,39.61
2019-06-27T06:42:33.694Z,40.22
2019-06-27T06:45:02.289Z,41.05
2019-06-27T06:47:30.937Z,42.06
2019-06-27T06:49:59.523Z,40.63
2019-06-27T06:52:28.273Z,39.81
2019-06-27T06:54:56.659Z,41.94
2019-06-27T06:57:25.208Z,40.98
2019-06-27T06:59:53.818Z,41.58
2019-06-27T07:02:22.182Z,41.51
2019-06-27T07:04:50.500Z,40.14
2019-06-27T07:07:18.840Z,41.66
2019-06-27T07:09:47.203Z,40.18
2019-06-27T07:12:15.527Z,40.94
2019-06-27T07:14:43.828Z,41.68
2019-06-27T07:17:12.499Z,41.66
2019-06-27T07:19:42.113Z,39.96
2019-06-27T07:22:10.804Z,42.32
2019-06-27T07:24:39.294Z,41.54
2019-06-27T07:27:07.657Z,41.44
2019-06-27T07:29:35.946Z,40.11
2019-06-27T07:32:04.269Z,39.73
2019-06-27T07:34:32.548Z,39.98
2019-06-27T07:37:01.287Z,40.43
2019-06-27T07:39:29.627Z,40.07
2019-06-27T07:41:57.918Z,41.56
2019-06-27T07:44:26.315Z,40.91
2019-06-27T07:46:54.674Z,41.28
2019-06-27T07:49:23.307Z,40.26
2019-06-27T07:51:51.991Z,40.91
2019-06-27T07:54:20.311Z,42.23
2019-06-27T07:56:48.615Z,41.46
2019-06-27T07:59:17.238Z,42.73
2019-06-27T08:01:45.555Z,41.82
2019-06-27T08:04:13.853Z,44.41
2019-06-27T08:06:42.501Z,44.05
2019-06-27T08:09:10.794Z,42.80
2019-06-27T08:11:39.551Z,43.84
2019-06-27T08:14:07.852Z,43.89
2019-06-27T08:16:36.175Z,42.35
2019-06-27T08:19:04.543Z,42.65
2019-06-27T08:21:32.910Z,43.11
2019-06-27T08:24:01.717Z,42.97
2019-06-27T08:26:30.088Z,43.24
2019-06-27T08:28:58.752Z,43.78
2019-06-27T08:31:27.093Z,43.74
2019-06-27T08:33:55.387Z,44.26
2019-06-27T08:36:24.087Z,42.57
2019-06-27T08:38:52.505Z,43.81
2019-06-27T08:41:20.788Z,45.93
2019-06-27T08:43:49.177Z,45.23
2019-06-27T08:46:17.539Z,46.06
2019-06-27T08:48:45.864Z,45.44
2019-06-27T08:51:14.170Z,44.17
2019-06-27T08:53:42.568Z,44.57
2019-06-27T08:56:10.895Z,43.52
2019-06-27T08:58:39.221Z,44.39
2019-06-27T09:01:07.719Z,43.87
2019-06-27T09:03:36.090Z,43.62
2019-06-27T09:06:04.478Z,44.34
2019-06-27T09:08:33.159Z,44.31
2019-06-27T09:11:01.508Z,44.55
2019-06-27T09:13:29.955Z,43.70
2019-06-27T09:15:58.623Z,43.70
2019-06-27T09:18:26.929Z,42.81
2019-06-27T09:20:55.581Z,42.85
2019-06-27T09:23:23.969Z,43.48
2019-06-27T09:25:52.268Z,43.90
2019-06-27T09:28:20.601Z,42.09
2019-06-27T09:30:48.917Z,43.27
2019-06-27T09:33:17.240Z,43.27
2019-06-27T09:35:45.547Z,44.26
2019-06-27T09:38:13.947Z,43.33
2019-06-27T09:40:42.322Z,42.86
2019-06-27T09:43:10.773Z,45.13
2019-06-27T09:45:39.195Z,44.19
2019-06-27T09:48:07.877Z,45.40
2019-06-27T09:50:36.170Z,44.10
2019-06-27T09:53:04.652Z,43.92
2019-06-27T09:55:33.039Z,45.03
2019-06-27T09:58:01.345Z,44.54
2019-06-27T10:00:30.432Z,44.24
2019-06-27T10:02:58.739Z,46.03
2019-06-27T10:05:27.057Z,46.67
2019-06-27T10:07:55.352Z,45.35
2019-06-27T10:10:23.773Z,45.99
2019-06-27T10:12:52.194Z,45.91
2019-06-27T10:15:20.600Z,46.73
2019-06-27T10:17:49.281Z,44.86
2019-06-27T10:20:17.919Z,46.55
2019-06-27T10:22:46.653Z,46.28
2019-06-27T10:25:15.024Z,46.25
2019-06-27T10:27:43.362Z,47.22
2019-06-27T10:30:13.656Z,46.82
2019-06-27T10:32:57.795Z,45.35
2019-06-27T10:35:12.176Z,46.56
2019-06-27T10:37:40.745Z,46.71
2019-06-27T10:40:10.052Z,47.64
2019-06-27T10:42:38.368Z,45.22
2019-06-27T10:45:08.004Z,45.29
2019-06-27T10:47:36.465Z,45.56
2019-06-27T10:50:06.308Z,45.91
2019-06-27T10:52:34.720Z,46.54
2019-06-27T10:55:03.386Z,45.44
2019-06-27T10:57:31.691Z,44.39
2019-06-27T11:00:00.090Z,44.73
2019-06-27T11:02:28.391Z,46.56
2019-06-27T11:04:56.781Z,47.06
2019-06-27T11:07:25.216Z,47.01
2019-06-27T11:09:53.899Z,46.45
2019-06-27T11:12:22.591Z,48.83
2019-06-27T11:14:59.058Z,46.64
2019-06-27T11:17:21.307Z,46.58
2019-06-27T11:19:52.598Z,45.11
2019-06-27T11:22:19.905Z,47.44
2019-06-27T11:24:48.281Z,46.94
2019-06-27T11:27:16.600Z,47.81
2019-06-27T11:29:45.011Z,46.92
2019-06-27T11:32:13.392Z,45.86
2019-06-27T11:34:41.683Z,45.31
2019-06-27T11:37:10.326Z,46.44
2019-06-27T11:39:38.588Z,46.97
2019-06-27T11:42:06.928Z,46.79
2019-06-27T11:44:35.325Z,45.16
2019-06-27T11:47:03.628Z,45.36
2019-06-27T11:49:32.394Z,44.82
2019-06-27T11:52:00.700Z,44.68
2019-06-27T11:54:29.036Z,44.28
2019-06-27T11:56:57.330Z,44.97
2019-06-27T11:59:25.649Z,44.80
2019-06-27T12:01:53.961Z,45.38
2019-06-27T12:04:22.344Z,47.27
2019-06-27T12:06:50.648Z,44.58
2019-06-27T12:09:18.980Z,46.24
2019-06-27T12:11:47.282Z,44.47
2019-06-27T12:14:15.663Z,46.62
2019-06-27T12:16:44.121Z,46.69
2019-06-27T12:19:12.420Z,46.97
2019-06-27T12:21:40.740Z,48.28
2019-06-27T12:24:09.084Z,47.15
2019-06-27T12:26:37.404Z,47.86
2019-06-27T12:29:05.781Z,49.53
2019-06-27T12:31:34.377Z,48.30
2019-06-27T12:34:07.154Z,48.37
2019-06-27T12:36:33.395Z,49.41
2019-06-27T12:39:01.697Z,45.84
2019-06-27T12:41:30.014Z,47.16
2019-06-27T12:43:58.420Z,50.70
2019-06-27T12:46:27.132Z,50.45
2019-06-27T12:48:55.572Z,52.05
2019-06-27T12:51:23.861Z,51.55
2019-06-27T12:53:55.555Z,47.90
2019-06-27T12:56:22.499Z,49.28
2019-06-27T12:58:51.191Z,48.71
2019-06-27T13:01:19.503Z,47.66
2019-06-27T13:03:47.820Z,50.20
2019-06-27T13:06:16.190Z,49.25
2019-06-27T13:08:44.561Z,48.43
2019-06-27T13:11:12.887Z,46.72
2019-06-27T13:13:41.261Z,44.00
2019-06-27T13:16:09.569Z,43.56
2019-06-27T13:18:37.934Z,43.83
2019-06-27T13:21:06.256Z,45.33
2019-06-27T13:23:34.909Z,43.10
2019-06-27T13:26:03.220Z,41.97
2019-06-27T13:28:31.523Z,42.87
2019-06-27T13:30:59.837Z,42.95
2019-06-27T13:33:28.146Z,43.13
2019-06-27T13:35:56.508Z,42.90
2019-06-27T13:38:24.834Z,44.36
2019-06-27T13:40:53.197Z,45.33
2019-06-27T13:43:21.576Z,44.91
2019-06-27T13:45:49.875Z,44.49
2019-06-27T13:48:18.198Z,42.63
2019-06-27T13:50:46.497Z,42.42
2019-06-27T13:53:15.196Z,42.67
2019-06-27T13:55:43.795Z,42.62
2019-06-27T13:58:12.376Z,42.83
2019-06-27T14:00:45.816Z,41.88
2019-06-27T14:03:14.521Z,41.35
2019-06-27T14:05:42.909Z,42.02
2019-06-27T14:08:11.272Z,42.66
2019-06-27T14:10:40.171Z,41.62
2019-06-27T14:13:08.466Z,41.61
2019-06-27T14:15:37.168Z,41.53
2019-06-27T14:18:05.539Z,39.65
2019-06-27T14:20:33.860Z,39.99
2019-06-27T14:23:02.245Z,38.73
2019-06-27T14:25:30.619Z,39.98
2019-06-27T14:27:59.026Z,40.82
2019-06-27T14:30:27.864Z,42.19
2019-06-27T14:32:56.157Z,43.87
2019-06-27T14:35:24.830Z,42.82
2019-06-27T14:37:53.209Z,41.67
2019-06-27T14:40:23.181Z,41.31
2019-06-27T14:42:51.826Z,39.77
2019-06-27T14:45:20.256Z,39.67
2019-06-27T14:47:48.615Z,39.78
2019-06-27T14:50:16.983Z,40.68
2019-06-27T14:52:48.693Z,38.55
2019-06-27T14:55:17.128Z,39.31
2019-06-27T14:57:45.451Z,39.85
2019-06-27T15:00:13.884Z,39.67
2019-06-27T15:02:42.209Z,39.78
2019-06-27T15:05:11.357Z,39.56
2019-06-27T15:07:39.725Z,40.02
2019-06-27T15:10:08.713Z,41.63
2019-06-27T15:12:37.287Z,40.40
2019-06-27T15:15:06.722Z,39.01
2019-06-27T15:17:35.064Z,40.41
2019-06-27T15:20:06.994Z,40.03
2019-06-27T15:22:35.366Z,40.81
2019-06-27T15:25:05.629Z,41.71
2019-06-27T15:27:33.920Z,43.21
2019-06-27T15:30:02.718Z,41.77
2019-06-27T15:32:31.478Z,43.60
2019-06-27T15:34:59.891Z,44.43
2019-06-27T15:37:28.533Z,43.86
2019-06-27T15:39:57.199Z,42.69
2019-06-27T15:42:26.198Z,42.67
2019-06-27T15:44:54.782Z,43.23
2019-06-27T15:47:23.469Z,42.31
2019-06-27T15:49:51.842Z,45.27
2019-06-27T15:52:20.311Z,45.75
2019-06-27T15:54:48.609Z,43.05
2019-06-27T15:57:16.930Z,43.83
2019-06-27T15:59:45.225Z,42.26
2019-06-27T16:02:13.864Z,42.93
2019-06-27T16:04:42.503Z,43.85
2019-06-27T16:07:10.891Z,44.71
2019-06-27T16:09:39.288Z,45.24
2019-06-27T16:12:07.924Z,45.61
2019-06-27T16:14:36.244Z,44.58
2019-06-27T16:17:04.609Z,45.95
2019-06-27T16:19:33.017Z,46.80
2019-06-27T16:22:01.392Z,46.62
2019-06-27T16:24:30.049Z,44.65
2019-06-27T16:26:58.304Z,46.46
2019-06-27T16:29:26.687Z,46.32
2019-06-27T16:31:54.993Z,46.05
2019-06-27T16:34:23.639Z,47.02
2019-06-27T16:36:52.329Z,47.76
2019-06-27T16:39:20.712Z,47.02
2019-06-27T16:41:49.427Z,47.31
2019-06-27T16:44:17.713Z,47.59
2019-06-27T16:46:46.030Z,48.61
2019-06-27T16:49:14.322Z,48.44
2019-06-27T16:51:42.648Z,50.43
2019-06-27T16:54:11.323Z,49.82
2019-06-27T16:56:39.715Z,51.77
2019-06-27T16:59:08.103Z,51.99
2019-06-27T17:01:36.399Z,50.77
2019-06-27T17:04:05.148Z,49.26
2019-06-27T17:06:42.223Z,48.45
2019-06-27T17:09:04.260Z,49.64
2019-06-27T17:11:32.675Z,52.33
2019-06-27T17:14:01.577Z,51.23
2019-06-27T17:16:29.912Z,50.42
2019-06-27T17:18:58.252Z,51.46
2019-06-27T17:21:26.575Z,48.87
2019-06-27T17:23:54.886Z,49.67
2019-06-27T17:26:23.276Z,51.58
2019-06-27T17:28:51.587Z,48.66
2019-06-27T17:31:19.910Z,50.08
2019-06-27T17:33:48.277Z,49.98
2019-06-27T17:36:16.616Z,49.09
2019-06-27T17:38:44.920Z,48.56
2019-06-27T17:41:13.309Z,48.73
2019-06-27T17:43:41.723Z,48.59
2019-06-27T17:46:10.085Z,47.72
2019-06-27T17:48:38.677Z,46.54
2019-06-27T17:51:08.159Z,46.33
2019-06-27T17:53:36.979Z,45.99
2019-06-27T17:56:05.350Z,46.05
2019-06-27T17:58:33.667Z,46.04
2019-06-27T18:01:02.367Z,46.07
2019-06-27T18:03:31.016Z,45.72
2019-06-27T18:05:59.312Z,47.23
2019-06-27T18:08:27.638Z,48.43
2019-06-27T18:10:56.267Z,46.72
2019-06-27T18:13:24.967Z,46.30
2019-06-27T18:15:53.266Z,45.07
2019-06-27T18:18:21.573Z,45.28
2019-06-27T18:20:49.903Z,44.47
2019-06-27T18:23:18.191Z,44.32
2019-06-27T18:25:46.536Z,44.60
2019-06-27T18:28:15.248Z,45.20
2019-06-27T18:30:43.920Z,44.14
2019-06-27T18:33:12.228Z,43.92
2019-06-27T18:35:40.555Z,44.98
2019-06-27T18:38:08.867Z,43.57
2019-06-27T18:40:37.581Z,43.60
2019-06-27T18:43:05.865Z,42.97
2019-06-27T18:45:34.607Z,42.92
2019-06-27T18:48:02.937Z,42.14
2019-06-27T18:50:31.244Z,41.53
2019-06-27T18:52:59.852Z,41.11
2019-06-27T18:55:28.570Z,40.61
2019-06-27T18:57:56.893Z,40.25
2019-06-27T19:00:25.731Z,40.68
2019-06-27T19:02:54.057Z,40.48
2019-06-27T19:05:22.435Z,40.87
2019-06-27T19:07:50.936Z,40.39
2019-06-27T19:10:19.367Z,41.38
2019-06-27T19:12:48.107Z,40.76
2019-06-27T19:15:16.564Z,40.85
2019-06-27T19:17:44.846Z,41.13
2019-06-27T19:20:15.764Z,41.17
2019-06-27T19:23:01.883Z,40.39
2019-06-27T19:25:34.603Z,40.85
2019-06-27T19:28:03.076Z,39.96
2019-06-27T19:30:32.642Z,40.38
2019-06-27T19:33:00.959Z,40.25
2019-06-27T19:35:29.282Z,40.01
2019-06-27T19:38:02.489Z,40.39
2019-06-27T19:40:27.759Z,39.59
2019-06-27T19:42:56.123Z,39.65
2019-06-27T19:45:24.568Z,39.89
2019-06-27T19:47:53.029Z,39.26
2019-06-27T19:50:21.425Z,39.03
2019-06-27T19:52:49.725Z,39.21
2019-06-27T19:55:18.095Z,39.30
2019-06-27T19:57:46.418Z,39.91
2019-06-27T20:00:15.551Z,40.05
2019-06-27T20:02:43.881Z,39.69
2019-06-27T20:05:12.255Z,40.03
2019-06-27T20:07:40.846Z,40.01
2019-06-27T20:10:11.818Z,39.11
2019-06-27T20:12:40.405Z,38.89
2019-06-27T20:15:08.937Z,38.67
2019-06-27T20:17:37.258Z,38.96
2019-06-27T20:20:05.833Z,38.68
2019-06-27T20:22:34.502Z,38.32
2019-06-27T20:25:02.869Z,38.07
2019-06-27T20:27:31.567Z,38.91
2019-06-27T20:30:00.260Z,38.41
2019-06-27T20:32:28.633Z,38.00
2019-06-27T20:34:57.336Z,37.56
2019-06-27T20:37:27.057Z,38.42
2019-06-27T20:39:55.634Z,38.58
2019-06-27T20:42:23.936Z,38.15
2019-06-27T20:44:52.592Z,38.65
2019-06-27T20:47:21.027Z,38.20
2019-06-27T20:49:49.350Z,39.07
2019-06-27T20:52:17.947Z,38.81
2019-06-27T20:54:46.317Z,38.05
2019-06-27T20:57:14.638Z,38.16
2019-06-27T20:59:42.936Z,37.41
2019-06-27T21:02:11.250Z,37.61
2019-06-27T21:04:40.063Z,38.29
2019-06-27T21:07:09.936Z,38.66
2019-06-27T21:09:38.764Z,37.38
2019-06-27T21:12:07.079Z,37.85
2019-06-27T21:14:35.837Z,36.84
2019-06-27T21:17:04.439Z,37.49
2019-06-27T21:19:32.743Z,37.48
2019-06-27T21:22:01.135Z,37.60
2019-06-27T21:24:29.910Z,37.79
2019-06-27T21:26:58.577Z,38.08
2019-06-27T21:29:26.883Z,37.43
2019-06-27T21:31:55.343Z,35.96
2019-06-27T21:34:23.641Z,36.91
2019-06-27T21:36:51.961Z,37.18
2019-06-27T21:39:20.353Z,37.40
2019-06-27T21:41:48.804Z,37.74
2019-06-27T21:44:17.440Z,37.36
2019-06-27T21:46:46.131Z,37.01
2019-06-27T21:49:14.453Z,37.48
2019-06-27T21:51:42.755Z,37.55
2019-06-27T21:54:11.080Z,37.25
2019-06-27T21:56:39.383Z,37.32
2019-06-27T21:59:07.705Z,37.52
2019-06-27T22:01:36.311Z,37.48
2019-06-27T22:04:04.962Z,37.60
2019-06-27T22:06:33.404Z,37.90
2019-06-27T22:09:01.757Z,36.91
2019-06-27T22:11:30.140Z,36.44
2019-06-27T22:13:58.449Z,37.18
2019-06-27T22:16:27.121Z,35.85
2019-06-27T22:18:55.496Z,36.84
2019-06-27T22:21:23.814Z,36.82
2019-06-27T22:23:52.478Z,36.67
2019-06-27T22:26:21.223Z,37.19
2019-06-27T22:28:49.952Z,38.08
2019-06-27T22:31:18.342Z,37.08
2019-06-27T22:33:46.715Z,37.00
2019-06-27T22:36:15.115Z,36.18
2019-06-27T22:39:01.416Z,36.53
2019-06-27T22:41:48.070Z,35.90
2019-06-27T22:44:34.191Z,35.55
2019-06-27T22:47:20.355Z,36.27
2019-06-27T22:49:49.437Z,35.59
2019-06-27T22:52:32.055Z,35.30
2019-06-27T22:55:05.011Z,35.81
2019-06-27T22:57:33.617Z,36.32
2019-06-27T23:00:02.286Z,36.24
2019-06-27T23:02:30.606Z,35.75
2019-06-27T23:04:58.909Z,35.13
2019-06-27T23:07:27.207Z,36.84
2019-06-27T23:09:57.430Z,37.03
2019-06-27T23:12:25.835Z,36.09
2019-06-27T23:14:54.150Z,36.57
2019-06-27T23:17:22.446Z,36.68
2019-06-27T23:19:51.086Z,36.01
2019-06-27T23:22:19.385Z,36.98
2019-06-27T23:24:49.343Z,35.51
2019-06-27T23:27:17.638Z,35.51
2019-06-27T23:29:46.258Z,34.88
2019-06-27T23:32:14.943Z,34.91
2019-06-27T23:34:43.251Z,35.68
2019-06-27T23:37:11.573Z,35.61
2019-06-27T23:39:39.879Z,35.53
2019-06-27T23:42:08.199Z,35.42
2019-06-27T23:44:36.504Z,35.65
2019-06-27T23:47:04.893Z,36.24
2019-06-27T23:49:33.185Z,35.05
2019-06-27T23:52:01.508Z,35.37
2019-06-27T23:54:29.962Z,34.91
2019-06-27T23:56:58.546Z,34.69
2019-06-27T23:59:26.945Z,34.74
